Time;durP1;ratioP1;P1;durP2;ratioP2;P2;SDS_P1;SDS_P2;PMS_P1;PMS_P2;Temp;Humidity;BMP_temperature;BMP_pressure;BME280_temperature;BME280_humidity;BME280_pressure;Samples;Min_cycle;Max_cycle;Signal;HPM_P1;HPM_P2
2022/10/15 00:00:46;;;;;;;1.27;0.80;;;;;;;13.28;100.00;94895.13;6153125;23;20566;-81
2022/10/15 00:03:11;;;;;;;1.33;0.80;;;;;;;13.28;100.00;94908.16;6152862;23;20170;-82
2022/10/15 00:05:38;;;;;;;1.17;0.70;;;;;;;13.21;100.00;94902.03;6152193;23;20772;-84
2022/10/15 00:08:04;;;;;;;2.43;0.80;;;;;;;13.27;100.00;94896.94;6128458;23;20304;-84
2022/10/15 00:10:29;;;;;;;0.63;0.63;;;;;;;13.21;100.00;94902.84;6152719;23;20171;-81
2022/10/15 00:12:55;;;;;;;2.30;0.70;;;;;;;13.18;100.00;94903.19;6155083;23;20597;-81
2022/10/15 00:15:20;;;;;;;1.20;0.80;;;;;;;13.21;100.00;94897.63;6127868;23;20246;-84
2022/10/15 00:17:45;;;;;;;0.80;0.60;;;;;;;13.23;100.00;94903.47;6152092;23;20183;-84
2022/10/15 00:20:11;;;;;;;0.97;0.70;;;;;;;13.18;100.00;94903.19;6153674;23;20159;-84
2022/10/15 00:22:36;;;;;;;1.77;0.90;;;;;;;13.27;100.00;94907.34;6153475;23;20527;-82
2022/10/15 00:25:03;;;;;;;1.97;0.70;;;;;;;13.31;100.00;94903.38;6128649;23;20222;-83
2022/10/15 00:27:28;;;;;;;0.97;0.87;;;;;;;13.37;100.00;94901.06;6154811;23;20159;-83
2022/10/15 00:29:54;;;;;;;0.80;0.77;;;;;;;13.33;100.00;94896.19;6127929;23;20191;-83
2022/10/15 00:32:19;;;;;;;1.53;0.67;;;;;;;13.36;100.00;94900.25;6152174;23;20172;-82
2022/10/15 00:34:45;;;;;;;1.27;0.60;;;;;;;13.42;100.00;94898.69;6153864;23;20151;-83
2022/10/15 00:37:10;;;;;;;0.90;0.90;;;;;;;13.45;100.00;94903.56;6152836;23;20147;-84
2022/10/15 00:39:36;;;;;;;1.30;1.20;;;;;;;13.45;100.00;94903.56;6154638;23;20647;-83
2022/10/15 00:42:02;;;;;;;1.63;0.70;;;;;;;13.44;100.00;94899.34;6152815;23;20179;-83
2022/10/15 00:44:30;;;;;;;0.50;0.50;;;;;;;13.48;100.00;94896.19;6127991;23;20159;-82
2022/10/15 00:47:02;;;;;;;0.80;0.80;;;;;;;13.46;100.00;94898.19;6153924;23;20166;-82
2022/10/15 00:49:39;;;;;;;2.20;0.80;;;;;;;13.40;100.00;94895.47;6127955;23;20179;-83
2022/10/15 00:52:12;;;;;;;1.60;0.70;;;;;;;13.41;100.00;94897.09;6127898;23;20181;-83
2022/10/15 00:54:40;;;;;;;0.97;0.87;;;;;;;13.42;100.00;94898.69;6127496;23;20154;-84
2022/10/15 00:57:06;;;;;;;0.57;0.57;;;;;;;13.37;100.00;94888.03;6152618;23;20159;-83
2022/10/15 00:59:33;;;;;;;0.60;0.60;;;;;;;13.41;100.00;94892.69;6152537;23;20178;-83
2022/10/15 01:01:59;;;;;;;0.50;0.50;;;;;;;13.39;100.00;94889.44;6152875;23;20472;-82
2022/10/15 01:04:25;;;;;;;1.03;0.70;;;;;;;13.42;100.00;94888.28;6129494;23;20167;-83
2022/10/15 01:06:50;;;;;;;1.43;0.60;;;;;;;13.48;100.00;94888.38;6153803;23;20594;-82
2022/10/15 01:09:15;;;;;;;1.50;0.57;;;;;;;13.43;100.00;94885.50;6154414;23;20182;-83
2022/10/15 01:11:46;;;;;;;0.50;0.47;;;;;;;13.54;100.00;94879.81;6129444;23;20174;-83
2022/10/15 01:14:24;;;;;;;0.40;0.40;;;;;;;13.56;100.00;94883.06;6154605;23;20242;-83
2022/10/15 01:16:56;;;;;;;1.03;0.40;;;;;;;13.53;100.00;94872.19;6153375;23;20194;-82
2022/10/15 01:19:40;;;;;;;0.73;0.50;;;;;;;13.61;100.00;94874.69;6154635;23;20198;-83
2022/10/15 01:22:10;;;;;;;1.40;0.40;;;;;;;13.59;100.00;94874.03;6154314;23;20652;-82
2022/10/15 01:24:43;;;;;;;0.53;0.50;;;;;;;13.69;100.00;94874.56;6129399;23;20172;-83
2022/10/15 01:27:28;;;;;;;1.27;0.40;;;;;;;13.67;100.00;94873.94;6154111;23;20159;-83
2022/10/15 01:30:13;;;;;;;0.70;0.40;;;;;;;13.61;100.00;94882.53;6105363;23;20249;-82
2022/10/15 01:32:48;;;;;;;0.53;0.43;;;;;;;13.69;100.00;94879.78;6155800;23;20183;-82
2022/10/15 01:35:33;;;;;;;0.70;0.30;;;;;;;13.77;100.00;94873.66;6153438;23;20139;-82
2022/10/15 01:38:07;;;;;;;0.30;0.30;;;;;;;13.81;100.00;94873.13;6154026;23;20942;-82
2022/10/15 01:40:37;;;;;;;0.20;0.20;;;;;;;13.81;100.00;94867.91;6153906;23;20473;-83
2022/10/15 01:43:06;;;;;;;0.20;0.20;;;;;;;13.85;100.00;94858.69;6154116;23;20144;-82
2022/10/15 01:45:39;;;;;;;1.83;0.30;;;;;;;13.91;100.00;94857.16;6128764;23;20554;-82
2022/10/15 01:48:08;;;;;;;1.53;0.30;;;;;;;13.82;100.00;94863.47;6153859;23;20171;-82
2022/10/15 01:50:34;;;;;;;1.07;0.30;;;;;;;13.93;100.00;94864.78;6129431;23;20206;-83
2022/10/15 01:53:01;;;;;;;0.40;0.30;;;;;;;13.96;100.00;94860.03;6129396;23;20636;-83
2022/10/15 01:55:26;;;;;;;0.60;0.20;;;;;;;13.95;100.00;94865.41;6128321;23;20594;-82
2022/10/15 01:57:54;;;;;;;0.30;0.30;;;;;;;14.03;100.00;94860.88;6129165;23;20159;-82
2022/10/15 02:00:19;;;;;;;1.13;0.30;;;;;;;14.06;100.00;94860.53;6129078;23;20298;-83
2022/10/15 02:02:45;;;;;;;0.50;0.20;;;;;;;14.04;100.00;94869.53;6153379;23;20238;-83
2022/10/15 02:05:20;;;;;;;1.45;0.30;;;;;;;14.15;100.00;94863.84;6154688;23;20151;-82
2022/10/15 02:08:06;;;;;;;2.17;0.30;;;;;;;14.20;100.00;94864.06;6153680;23;20223;-83
2022/10/15 02:10:45;;;;;;;0.37;0.30;;;;;;;14.20;100.00;94866.69;6153486;23;20175;-83
2022/10/15 02:13:18;;;;;;;1.30;0.40;;;;;;;14.21;100.00;94870.91;6153350;23;20143;-82
2022/10/15 02:15:45;;;;;;;0.30;0.30;;;;;;;14.22;100.00;94866.50;6153160;23;20143;-82
2022/10/15 02:18:24;;;;;;;1.45;0.30;;;;;;;14.26;100.00;94867.75;6153693;23;20179;-82
2022/10/15 02:20:55;;;;;;;0.40;0.40;;;;;;;14.28;100.00;94866.56;6155656;23;20155;-82
2022/10/15 02:23:26;;;;;;;0.30;0.20;;;;;;;14.28;100.00;94863.94;6129348;23;20304;-82
2022/10/15 02:25:52;;;;;;;1.50;0.30;;;;;;;14.34;100.00;94868.44;6128761;23;20155;-82
2022/10/15 02:28:18;;;;;;;1.17;0.50;;;;;;;14.37;100.00;94868.06;6129102;23;20206;-83
2022/10/15 02:30:47;;;;;;;1.13;0.30;;;;;;;14.38;100.00;94882.72;6153745;23;20175;-82
2022/10/15 02:33:15;;;;;;;1.13;0.20;;;;;;;14.40;100.00;94885.97;6129117;23;20159;-82
2022/10/15 02:35:42;;;;;;;1.27;0.30;;;;;;;14.43;100.00;94882.19;6128017;23;20159;-82
2022/10/15 02:38:08;;;;;;;1.20;0.30;;;;;;;14.40;100.00;94878.16;6128552;23;20250;-83
2022/10/15 02:40:34;;;;;;;0.50;0.30;;;;;;;14.44;100.00;94881.19;6156422;23;20163;-81
2022/10/15 02:42:59;;;;;;;1.50;0.50;;;;;;;14.42;100.00;94880.56;6134398;23;20238;-83
2022/10/15 02:45:24;;;;;;;0.30;0.28;;;;;;;14.39;100.00;94886.13;6156639;23;20178;-83
2022/10/15 02:47:50;;;;;;;0.20;0.20;;;;;;;14.37;100.00;94881.09;6130945;23;20209;-83
2022/10/15 02:50:15;;;;;;;0.20;0.20;;;;;;;14.45;100.00;94880.22;6155520;23;20151;-82
2022/10/15 02:52:40;;;;;;;0.30;0.22;;;;;;;14.52;100.00;94886.31;6154957;23;20175;-83
2022/10/15 02:55:06;;;;;;;0.20;0.20;;;;;;;14.55;100.00;94883.31;6154252;23;20159;-82
2022/10/15 02:57:31;;;;;;;1.27;0.20;;;;;;;14.47;100.00;94882.63;6154866;23;20175;-83
2022/10/15 02:59:56;;;;;;;0.40;0.30;;;;;;;14.50;100.00;94883.09;6129389;23;20230;-83
2022/10/15 03:02:22;;;;;;;0.30;0.30;;;;;;;14.51;100.00;94883.88;6156657;23;20198;-82
2022/10/15 03:04:47;;;;;;;0.30;0.30;;;;;;;14.51;100.00;94884.69;6154148;23;20155;-82
2022/10/15 03:07:13;;;;;;;0.20;0.20;;;;;;;14.49;100.00;94880.63;6129461;23;20159;-82
2022/10/15 03:09:38;;;;;;;0.20;0.20;;;;;;;14.37;100.00;94883.72;6154123;23;20191;-81
2022/10/15 03:12:03;;;;;;;0.77;0.30;;;;;;;14.42;100.00;94888.41;6154479;23;20176;-83
2022/10/15 03:14:29;;;;;;;1.10;0.30;;;;;;;14.47;100.00;94887.84;6130037;23;20163;-82
2022/10/15 03:16:54;;;;;;;0.25;0.20;;;;;;;14.47;100.00;94885.25;6154257;23;20159;-82
2022/10/15 03:19:19;;;;;;;0.20;0.20;;;;;;;14.42;100.00;94891.81;6129801;23;20692;-82
2022/10/15 03:21:45;;;;;;;0.30;0.23;;;;;;;14.52;100.00;94895.94;6154627;23;20166;-81
2022/10/15 03:24:10;;;;;;;0.30;0.30;;;;;;;14.43;100.00;94887.41;6130170;23;20182;-82
2022/10/15 03:26:35;;;;;;;0.20;0.20;;;;;;;14.49;100.00;94898.91;6128852;23;20167;-82
2022/10/15 03:29:00;;;;;;;0.20;0.20;;;;;;;14.53;100.00;94898.38;6154578;23;20202;-82
2022/10/15 03:31:26;;;;;;;1.83;0.30;;;;;;;14.45;100.00;94901.09;6129705;23;20172;-82
2022/10/15 03:33:51;;;;;;;0.20;0.20;;;;;;;14.52;100.00;94901.19;6129494;23;20159;-82
2022/10/15 03:36:16;;;;;;;1.23;0.40;;;;;;;14.32;100.00;94906.19;6153907;23;20155;-83
2022/10/15 03:38:42;;;;;;;0.30;0.30;;;;;;;14.37;100.00;94904.63;6154314;23;20206;-82
2022/10/15 03:41:07;;;;;;;0.30;0.30;;;;;;;14.34;100.00;94904.19;6154054;23;20148;-83
2022/10/15 03:43:32;;;;;;;0.90;0.30;;;;;;;14.30;100.00;94906.34;6128826;23;20162;-82
2022/10/15 03:46:02;;;;;;;1.38;0.30;;;;;;;14.32;100.00;94904.38;6152792;23;20160;-82
2022/10/15 03:48:28;;;;;;;0.28;0.28;;;;;;;14.37;100.00;94912.47;6153641;23;20186;-83
2022/10/15 03:50:53;;;;;;;0.30;0.30;;;;;;;14.26;100.00;94906.94;6153432;23;20175;-82
2022/10/15 03:53:18;;;;;;;0.30;0.30;;;;;;;14.28;100.00;94913.56;6129023;23;20163;-83
2022/10/15 03:55:44;;;;;;;1.30;0.30;;;;;;;14.30;100.00;94905.53;6152894;23;20162;-82
2022/10/15 03:58:09;;;;;;;0.30;0.30;;;;;;;14.20;100.00;94916.28;6128578;23;20214;-82
2022/10/15 04:00:34;;;;;;;0.60;0.30;;;;;;;14.24;100.00;94925.41;6128898;23;20245;-82
2022/10/15 04:03:00;;;;;;;0.40;0.40;;;;;;;14.25;100.00;94924.41;6154201;23;20159;-82
2022/10/15 04:05:25;;;;;;;0.95;0.40;;;;;;;14.29;100.00;94923.03;6152735;23;20155;-82
2022/10/15 04:07:50;;;;;;;0.40;0.30;;;;;;;14.24;100.00;94928.00;6143542;23;20236;-83
2022/10/15 04:10:16;;;;;;;0.30;0.25;;;;;;;14.32;100.00;94919.25;6142946;23;20564;-82
2022/10/15 04:12:41;;;;;;;0.20;0.20;;;;;;;14.33;100.00;94913.03;6160076;23;20175;-82
2022/10/15 04:15:07;;;;;;;0.30;0.30;;;;;;;14.34;100.00;94918.06;6137919;23;20159;-81
2022/10/15 04:17:32;;;;;;;0.98;0.20;;;;;;;14.34;100.00;94931.13;6165066;23;20167;-82
2022/10/15 04:19:57;;;;;;;0.88;0.40;;;;;;;14.30;100.00;94929.06;6152065;23;20234;-83
2022/10/15 04:22:22;;;;;;;0.32;0.32;;;;;;;14.28;100.00;94937.06;6152071;23;20213;-82
2022/10/15 04:24:48;;;;;;;0.80;0.30;;;;;;;14.30;100.00;94942.09;6158411;23;20155;-83
2022/10/15 04:27:13;;;;;;;1.70;0.30;;;;;;;14.35;100.00;94935.34;6155269;23;20159;-82
2022/10/15 04:29:38;;;;;;;0.30;0.30;;;;;;;14.36;100.00;94939.56;6152864;23;20175;-82
2022/10/15 04:32:04;;;;;;;0.50;0.20;;;;;;;14.29;100.00;94943.91;6127147;23;20186;-82
2022/10/15 04:34:29;;;;;;;0.43;0.30;;;;;;;14.36;100.00;94946.59;6126796;23;20170;-82
2022/10/15 04:36:54;;;;;;;2.72;0.40;;;;;;;14.29;100.00;94943.91;6152038;23;20159;-83
2022/10/15 04:39:20;;;;;;;0.55;0.35;;;;;;;14.23;100.00;94952.50;6127243;23;20183;-83
2022/10/15 04:41:45;;;;;;;1.27;0.40;;;;;;;14.26;100.00;94948.72;6127611;23;20190;-83
2022/10/15 04:44:10;;;;;;;0.52;0.52;;;;;;;14.35;100.00;94953.63;6127286;23;20242;-83
2022/10/15 04:46:36;;;;;;;1.27;0.40;;;;;;;14.32;100.00;94954.00;6126305;23;20163;-83
2022/10/15 04:49:01;;;;;;;0.47;0.40;;;;;;;14.34;100.00;94952.00;6128564;23;20523;-82
2022/10/15 04:51:26;;;;;;;0.40;0.40;;;;;;;14.29;100.00;94949.13;6153376;23;20182;-83
2022/10/15 04:53:52;;;;;;;0.40;0.40;;;;;;;14.26;100.00;94954.75;6151819;23;20155;-83
2022/10/15 04:56:19;;;;;;;0.57;0.40;;;;;;;14.27;100.00;94956.34;6150812;23;20152;-83
2022/10/15 04:58:45;;;;;;;0.40;0.40;;;;;;;14.26;100.00;94959.97;6127184;23;20516;-83
2022/10/15 05:01:13;;;;;;;1.30;0.50;;;;;;;14.27;100.00;94958.97;6152611;23;20206;-83
2022/10/15 05:03:40;;;;;;;0.38;0.38;;;;;;;14.31;100.00;94962.84;6152526;23;20183;-83
2022/10/15 05:06:14;;;;;;;1.88;0.50;;;;;;;14.23;100.00;94969.97;6126730;23;20233;-83
2022/10/15 05:08:40;;;;;;;1.73;0.45;;;;;;;14.23;100.00;94981.22;6156863;23;20201;-83
2022/10/15 05:11:12;;;;;;;1.05;0.30;;;;;;;14.23;100.00;94981.22;6182811;23;20163;-83
2022/10/15 05:13:37;;;;;;;0.43;0.40;;;;;;;14.20;100.00;94988.59;6157162;23;20596;-82
2022/10/15 05:16:12;;;;;;;1.08;0.43;;;;;;;14.24;100.00;94982.84;6156806;23;20150;-83
2022/10/15 05:18:38;;;;;;;2.33;0.50;;;;;;;14.27;100.00;94998.13;6156744;23;20178;-83
2022/10/15 05:21:03;;;;;;;0.90;0.60;;;;;;;14.15;100.00;94991.78;6132042;23;20536;-83
2022/10/15 05:23:28;;;;;;;0.40;0.40;;;;;;;14.14;100.00;94984.94;6132153;23;20169;-83
2022/10/15 05:25:54;;;;;;;0.50;0.50;;;;;;;14.08;100.00;94978.63;6131331;23;20655;-84
2022/10/15 05:28:19;;;;;;;2.10;0.50;;;;;;;14.06;100.00;94987.66;6132303;23;20186;-83
2022/10/15 05:30:44;;;;;;;2.70;0.50;;;;;;;14.12;100.00;94998.16;6156535;23;20163;-83
2022/10/15 05:33:10;;;;;;;0.40;0.40;;;;;;;14.06;100.00;94998.91;6156673;23;20217;-81
2022/10/15 05:35:36;;;;;;;0.40;0.40;;;;;;;14.03;100.00;94998.44;6131712;23;20593;-83
2022/10/15 05:38:03;;;;;;;0.90;0.50;;;;;;;14.01;100.00;94988.19;6182903;23;20190;-83
2022/10/15 05:40:28;;;;;;;0.63;0.40;;;;;;;14.02;100.00;94991.59;6157373;23;20221;-83
2022/10/15 05:42:53;;;;;;;0.77;0.50;;;;;;;14.07;100.00;94997.09;6132893;23;20162;-84
2022/10/15 05:45:18;;;;;;;1.33;0.77;;;;;;;14.10;100.00;94997.53;6155870;23;20472;-83
2022/10/15 05:47:44;;;;;;;0.80;0.70;;;;;;;13.98;100.00;95003.41;6156394;23;20159;-83
2022/10/15 05:50:09;;;;;;;2.60;0.97;;;;;;;14.10;100.00;95012.41;6132884;23;20162;-83
2022/10/15 05:52:34;;;;;;;1.05;0.70;;;;;;;14.07;100.00;95008.34;6157787;23;20175;-84
2022/10/15 05:55:00;;;;;;;0.80;0.70;;;;;;;14.02;100.00;95012.50;6133021;23;20370;-83
2022/10/15 05:57:25;;;;;;;0.60;0.60;;;;;;;14.03;100.00;95016.72;6133672;23;20170;-83
2022/10/15 05:59:50;;;;;;;1.20;1.10;;;;;;;14.03;100.00;95019.31;6158593;23;20181;-83
2022/10/15 06:02:15;;;;;;;2.10;1.50;;;;;;;14.04;100.00;95019.13;6158725;23;20146;-83
2022/10/15 06:04:41;;;;;;;0.90;0.90;;;;;;;14.03;100.00;95009.69;6133358;23;20492;-85
2022/10/15 06:07:07;;;;;;;2.10;1.00;;;;;;;14.05;100.00;95018.19;6158031;23;20155;-83
2022/10/15 06:09:32;;;;;;;1.60;1.30;;;;;;;14.05;100.00;95022.59;6158342;23;20190;-84
2022/10/15 06:11:57;;;;;;;2.50;2.00;;;;;;;14.00;100.00;95028.34;6157969;23;20938;-84
2022/10/15 06:14:23;;;;;;;1.70;0.90;;;;;;;13.96;100.00;95028.88;6133438;23;20592;-82
2022/10/15 06:16:49;;;;;;;2.63;1.05;;;;;;;14.06;100.00;95038.06;6157584;23;20157;-84
2022/10/15 06:19:15;;;;;;;2.03;0.90;;;;;;;14.06;100.00;95032.03;6133268;23;20225;-85
2022/10/15 06:21:40;;;;;;;1.57;1.20;;;;;;;14.07;100.00;95038.88;6158658;23;20155;-84
2022/10/15 06:24:05;;;;;;;1.47;1.37;;;;;;;14.06;100.00;95034.66;6133422;23;20213;-86
2022/10/15 06:26:31;;;;;;;1.05;0.80;;;;;;;14.05;100.00;95038.25;6157776;23;20151;-84
2022/10/15 06:36:44;;;;;;;2.97;2.28;;;;;;;13.97;100.00;95054.81;6129681;23;20183;-82
2022/10/15 06:39:10;;;;;;;3.08;2.88;;;;;;;14.05;100.00;95061.75;6124144;23;20172;-84
2022/10/15 06:41:35;;;;;;;1.00;0.90;;;;;;;14.01;100.00;95065.69;6123779;23;20237;-84
2022/10/15 06:44:00;;;;;;;1.20;0.90;;;;;;;14.05;100.00;95072.19;6123747;23;20164;-85
2022/10/15 06:46:26;;;;;;;1.53;0.90;;;;;;;14.13;100.00;95065.06;6125317;23;20491;-85
2022/10/15 06:48:51;;;;;;;2.67;0.80;;;;;;;14.12;100.00;95071.25;6124020;23;20191;-85
2022/10/15 06:51:17;;;;;;;1.70;1.00;;;;;;;14.16;100.00;95075.16;6127896;23;20192;-85
2022/10/15 06:53:42;;;;;;;1.70;0.80;;;;;;;14.26;100.00;95080.09;6126677;23;20606;-85
2022/10/15 06:56:08;;;;;;;0.90;0.80;;;;;;;14.24;100.00;95076.84;6125420;23;20152;-84
2022/10/15 06:58:36;;;;;;;0.90;0.90;;;;;;;14.28;100.00;95082.53;6125931;23;20176;-85
2022/10/15 07:01:03;;;;;;;2.13;0.73;;;;;;;14.34;100.00;95085.22;6125646;23;20227;-84
2022/10/15 07:03:28;;;;;;;0.82;0.80;;;;;;;14.34;100.00;95081.81;6127034;23;21022;-85
2022/10/15 07:05:54;;;;;;;1.55;1.02;;;;;;;14.37;100.00;95087.47;6125594;23;20184;-85
2022/10/15 07:08:19;;;;;;;1.42;0.90;;;;;;;14.34;100.00;95095.66;6126135;23;20633;-85
2022/10/15 07:10:44;;;;;;;1.88;0.80;;;;;;;14.36;100.00;95096.28;6126030;23;20517;-86
2022/10/15 07:13:10;;;;;;;0.80;0.80;;;;;;;14.38;100.00;95099.53;6126456;23;20168;-85
2022/10/15 07:15:35;;;;;;;1.17;0.85;;;;;;;14.41;100.00;95099.19;6125683;23;20159;-85
2022/10/15 07:18:00;;;;;;;2.37;1.60;;;;;;;14.54;100.00;95100.34;6125702;23;20616;-86
2022/10/15 07:20:30;;;;;;;1.87;0.90;;;;;;;14.60;100.00;95107.47;6126828;23;20163;-85
2022/10/15 07:23:00;;;;;;;2.23;1.20;;;;;;;14.50;100.00;95097.31;6125440;23;20152;-85
2022/10/15 07:25:26;;;;;;;1.65;0.98;;;;;;;14.58;100.00;95107.66;6123534;23;20214;-82
2022/10/15 07:27:52;;;;;;;2.30;0.70;;;;;;;14.44;100.00;95104.03;6100073;23;20170;-82
2022/10/15 07:30:17;;;;;;;0.95;0.80;;;;;;;14.24;100.00;95105.59;6125263;23;20546;-83
2022/10/15 07:32:42;;;;;;;1.38;0.80;;;;;;;14.42;100.00;95113.84;6123584;23;20187;-83
2022/10/15 07:35:08;;;;;;;0.73;0.60;;;;;;;14.33;100.00;95108.91;6099613;23;20172;-83
2022/10/15 07:37:33;;;;;;;0.93;0.70;;;;;;;14.25;100.00;95117.66;6124202;23;20156;-83
2022/10/15 07:39:59;;;;;;;3.53;1.00;;;;;;;14.30;100.00;95117.91;6124826;23;20235;-82
2022/10/15 07:42:24;;;;;;;2.70;0.80;;;;;;;14.33;100.00;95121.97;6124795;23;20158;-83
2022/10/15 07:44:50;;;;;;;1.30;0.90;;;;;;;14.20;100.00;95116.56;6099371;23;20207;-83
2022/10/15 07:47:15;;;;;;;0.73;0.70;;;;;;;14.36;100.00;95122.41;6124286;23;20163;-83
2022/10/15 07:49:40;;;;;;;0.60;0.60;;;;;;;14.26;100.00;95127.09;6124354;23;20168;-83
2022/10/15 07:52:07;;;;;;;0.70;0.50;;;;;;;14.30;100.00;95138.78;6099592;23;20180;-83
2022/10/15 07:54:32;;;;;;;0.73;0.70;;;;;;;14.24;100.00;95139.53;6124227;23;20223;-84
2022/10/15 07:56:58;;;;;;;1.13;0.60;;;;;;;14.27;100.00;95136.56;6124893;23;20155;-84
2022/10/15 07:59:23;;;;;;;1.52;0.73;;;;;;;14.51;100.00;95139.91;6124519;23;20526;-84
2022/10/15 08:01:50;;;;;;;1.88;0.70;;;;;;;14.41;100.00;95134.94;6124197;23;20171;-83
2022/10/15 08:04:15;;;;;;;0.50;0.50;;;;;;;14.44;100.00;95140.59;6124312;23;20167;-83
2022/10/15 08:06:40;;;;;;;0.50;0.50;;;;;;;14.55;100.00;95133.31;6125398;23;20152;-83
2022/10/15 08:09:06;;;;;;;0.65;0.60;;;;;;;14.43;100.00;95135.56;6124705;23;20171;-83
2022/10/15 08:11:31;;;;;;;1.00;0.52;;;;;;;14.71;100.00;95136.56;6124064;23;20187;-83
2022/10/15 08:13:56;;;;;;;1.10;0.70;;;;;;;14.73;100.00;95133.75;6124527;23;20172;-84
2022/10/15 08:16:21;;;;;;;0.43;0.43;;;;;;;14.85;100.00;95142.75;6124116;23;20168;-83
2022/10/15 08:18:47;;;;;;;1.60;0.60;;;;;;;14.62;100.00;95152.53;6124853;23;20183;-83
2022/10/15 08:21:12;;;;;;;1.20;0.70;;;;;;;14.77;100.00;95148.09;6099735;23;20191;-83
2022/10/15 08:23:37;;;;;;;0.47;0.47;;;;;;;14.70;100.00;95148.00;6125188;23;20156;-83
2022/10/15 08:26:03;;;;;;;1.85;0.65;;;;;;;14.93;100.00;95150.50;6142230;23;20183;-84
2022/10/15 08:28:30;;;;;;;0.90;0.80;;;;;;;14.85;100.00;95150.59;6121853;23;20207;-84
2022/10/15 08:30:57;;;;;;;0.80;0.50;;;;;;;14.92;100.00;95151.47;6121321;23;20144;-83
2022/10/15 08:33:22;;;;;;;1.20;1.20;;;;;;;14.99;100.00;95154.97;6122119;23;20159;-84
2022/10/15 08:35:48;;;;;;;1.63;1.20;;;;;;;15.24;100.00;95154.63;6123330;23;20163;-85
2022/10/15 08:45:11;;;;;;;0.80;0.60;;;;;;;15.00;100.00;95164.44;6157268;23;20511;-85
2022/10/15 08:52:47;;;;;;;0.70;0.70;;;;;;;15.04;100.00;95175.34;6160608;23;20197;-84
2022/10/15 08:55:15;;;;;;;0.60;0.60;;;;;;;14.84;100.00;95174.28;6131723;23;20151;-84
2022/10/15 08:58:06;;;;;;;0.60;0.60;;;;;;;14.91;100.00;95170.75;6132604;23;20162;-83
2022/10/15 09:00:37;;;;;;;0.50;0.50;;;;;;;14.65;100.00;95175.66;6103475;23;20152;-84
2022/10/15 09:03:28;;;;;;;1.85;0.55;;;;;;;14.71;100.00;95167.91;6103428;23;20151;-84
2022/10/15 09:06:18;;;;;;;0.98;0.40;;;;;;;14.79;100.00;95174.84;6125950;23;20166;-84
2022/10/15 09:09:10;;;;;;;0.40;0.40;;;;;;;14.71;100.00;95177.56;6127512;23;20167;-83
2022/10/15 09:11:39;;;;;;;0.40;0.40;;;;;;;14.85;100.00;95181.16;6127463;23;20179;-83
2022/10/15 09:14:11;;;;;;;0.40;0.40;;;;;;;15.08;100.00;95173.16;6127227;23;20163;-83
2022/10/15 09:16:38;;;;;;;1.10;0.50;;;;;;;15.14;100.00;95182.91;6102501;23;20147;-83
2022/10/15 09:19:10;;;;;;;2.53;0.60;;;;;;;15.19;100.00;95186.56;6102878;23;20266;-82
2022/10/15 09:21:35;;;;;;;0.63;0.63;;;;;;;15.35;100.00;95185.53;6103191;23;20170;-82
2022/10/15 09:24:01;;;;;;;0.80;0.57;;;;;;;15.27;100.00;95190.88;6103282;23;20224;-83
2022/10/15 09:26:52;;;;;;;0.80;0.70;;;;;;;15.52;100.00;95196.56;6103844;23;20668;-82
2022/10/15 09:29:27;;;;;;;0.40;0.40;;;;;;;15.44;100.00;95197.50;6074553;23;20187;-82
2022/10/15 09:32:07;;;;;;;1.67;0.80;;;;;;;15.68;100.00;95200.78;6129437;23;20182;-82
2022/10/15 09:34:47;;;;;;;0.60;0.60;;;;;;;15.89;100.00;95202.56;6155058;23;20147;-84
2022/10/15 09:37:17;;;;;;;0.73;0.40;;;;;;;16.15;100.00;95187.06;6154078;23;20252;-84
2022/10/15 09:40:23;;;;;;;1.17;0.50;;;;;;;16.06;100.00;95191.63;6104835;23;20616;-82
2022/10/15 09:42:49;;;;;;;0.47;0.47;;;;;;;16.04;100.00;95185.78;6104832;23;20190;-83
2022/10/15 09:45:16;;;;;;;0.85;0.60;;;;;;;15.92;100.00;95202.22;6104538;23;20573;-83
2022/10/15 09:47:42;;;;;;;0.47;0.47;;;;;;;16.26;100.00;95196.25;6106233;23;20155;-84
2022/10/15 09:50:12;;;;;;;0.40;0.40;;;;;;;16.12;100.00;95193.50;6105221;23;20687;-83
2022/10/15 09:53:03;;;;;;;0.85;0.47;;;;;;;16.17;100.00;95189.50;6155024;23;20258;-83
2022/10/15 09:55:41;;;;;;;1.15;0.70;;;;;;;16.43;100.00;95185.28;6124405;23;20139;-85
2022/10/15 09:58:12;;;;;;;1.20;0.73;;;;;;;16.28;100.00;95197.66;6134638;23;20163;-85
2022/10/15 10:00:49;;;;;;;0.60;0.40;;;;;;;16.33;100.00;95194.44;6134126;23;20135;-85
2022/10/15 10:03:15;;;;;;;0.40;0.40;;;;;;;16.12;100.00;95201.38;6153503;23;20159;-84
2022/10/15 10:05:40;;;;;;;0.55;0.55;;;;;;;16.21;100.00;95193.38;6133818;23;20159;-86
2022/10/15 10:08:21;;;;;;;0.57;0.52;;;;;;;16.06;100.00;95214.41;6133461;23;20164;-86
2022/10/15 10:11:16;;;;;;;1.10;1.00;;;;;;;15.90;97.72;95207.63;6108070;23;20720;-83
2022/10/15 10:13:55;;;;;;;0.70;0.68;;;;;;;16.33;97.28;95210.16;6105020;23;20167;-83
2022/10/15 10:16:21;;;;;;;1.92;1.77;;;;;;;16.38;98.71;95210.41;6104561;23;20140;-84
2022/10/15 10:19:05;;;;;;;2.20;2.08;;;;;;;16.64;95.35;95217.63;6110291;23;20254;-84
2022/10/15 10:21:33;;;;;;;1.40;1.20;;;;;;;16.69;94.76;95215.25;6133449;23;20136;-85
2022/10/15 10:24:29;;;;;;;3.47;0.93;;;;;;;16.72;93.03;95214.91;6133950;23;20155;-85
2022/10/15 10:26:55;;;;;;;1.25;1.15;;;;;;;16.94;92.23;95218.22;6133012;23;20151;-85
2022/10/15 10:29:21;;;;;;;1.35;0.70;;;;;;;16.85;91.15;95220.19;6139573;23;20179;-83
2022/10/15 10:31:50;;;;;;;0.50;0.50;;;;;;;16.73;91.10;95221.75;6105283;23;20179;-83
2022/10/15 10:34:17;;;;;;;1.15;0.50;;;;;;;16.63;90.03;95223.88;6105636;23;20174;-83
2022/10/15 10:36:47;;;;;;;1.90;0.50;;;;;;;16.43;91.11;95223.75;6080500;23;20185;-83
2022/10/15 10:39:28;;;;;;;1.58;0.55;;;;;;;16.73;89.97;95224.38;6105705;23;20899;-83
2022/10/15 10:41:58;;;;;;;1.23;0.85;;;;;;;16.49;89.58;95228.22;6130640;23;20617;-84
2022/10/15 10:44:30;;;;;;;2.92;0.57;;;;;;;16.39;90.31;95219.91;6157942;23;20174;-84
2022/10/15 10:47:07;;;;;;;2.08;0.60;;;;;;;16.40;90.58;95226.75;6131531;23;20151;-84
2022/10/15 10:49:34;;;;;;;3.65;0.70;;;;;;;16.61;91.44;95218.84;6131391;23;20269;-83
2022/10/15 10:52:00;;;;;;;0.98;0.40;;;;;;;16.27;90.99;95221.44;6131306;23;20270;-84
2022/10/15 10:54:26;;;;;;;1.65;0.50;;;;;;;16.40;90.24;95219.69;6127050;23;20241;-84
2022/10/15 10:56:52;;;;;;;1.60;0.55;;;;;;;16.61;89.96;95212.78;6154824;23;20644;-84
2022/10/15 10:59:32;;;;;;;2.05;0.50;;;;;;;16.41;88.40;95220.50;6129640;23;20279;-83
2022/10/15 11:01:57;;;;;;;0.55;0.40;;;;;;;16.26;88.81;95222.44;6128991;23;20211;-84
2022/10/15 11:04:28;;;;;;;1.10;0.60;;;;;;;16.51;88.51;95213.13;6128547;23;20257;-83
2022/10/15 11:07:03;;;;;;;0.65;0.60;;;;;;;16.39;87.81;95209.41;6152725;23;20164;-84
2022/10/15 11:09:59;;;;;;;4.07;0.63;;;;;;;16.34;87.71;95209.16;6155973;23;20709;-84
2022/10/15 11:12:29;;;;;;;1.27;0.60;;;;;;;16.44;86.93;95217.53;6130060;23;20221;-84
2022/10/15 11:15:16;;;;;;;1.95;0.70;;;;;;;16.27;86.43;95205.72;6156475;23;20255;-84
2022/10/15 11:17:53;;;;;;;1.48;0.70;;;;;;;16.02;87.36;95213.19;6130366;23;20194;-83
2022/10/15 11:20:31;;;;;;;1.30;0.80;;;;;;;16.31;87.98;95204.31;6129945;23;20205;-84
2022/10/15 11:23:21;;;;;;;1.73;0.90;;;;;;;16.20;86.75;95204.84;6155575;23;20143;-84
2022/10/15 11:25:54;;;;;;;1.00;0.77;;;;;;;15.91;86.81;95208.47;6154281;23;20144;-83
2022/10/15 11:28:28;;;;;;;3.22;0.90;;;;;;;16.45;85.68;95192.94;6128936;23;20182;-84
2022/10/15 11:31:00;;;;;;;0.63;0.63;;;;;;;16.31;85.65;95185.97;6153771;23;20143;-84
2022/10/15 11:33:57;;;;;;;1.58;0.80;;;;;;;16.05;85.52;95181.34;6153437;23;20139;-83
2022/10/15 11:36:35;;;;;;;0.98;0.68;;;;;;;15.99;86.99;95195.19;6152267;23;20167;-84
2022/10/15 11:39:31;;;;;;;8.80;1.30;;;;;;;16.15;86.23;95185.25;6153608;23;20174;-83
2022/10/15 11:42:08;;;;;;;2.28;1.15;;;;;;;16.32;87.13;95180.53;6127733;23;20722;-84
2022/10/15 11:44:52;;;;;;;12.43;1.23;;;;;;;16.05;86.24;95186.59;6153925;23;20648;-83
2022/10/15 11:48:08;;;;;;;4.10;0.75;;;;;;;16.17;85.35;95186.88;6152021;23;20204;-84
2022/10/15 11:50:40;;;;;;;1.38;0.65;;;;;;;16.13;86.89;95184.66;6039525;23;20683;-84
2022/10/15 11:53:36;;;;;;;6.85;0.70;;;;;;;16.08;86.55;95189.66;6063886;23;20585;-83
2022/10/15 11:56:08;;;;;;;1.58;0.65;;;;;;;16.13;85.93;95184.66;6039553;23;20176;-83